Time;durP1;ratioP1;P1;durP2;ratioP2;P2;SDS_P1;SDS_P2;PMS_P1;PMS_P2;Temp;Humidity;BMP_temperature;BMP_pressure;BME280_temperature;BME280_humidity;BME280_pressure;Samples;Min_cycle;Max_cycle;Signal;HPM_P1;HPM_P2
2021/10/13 00:02:00;;;;;;;4.97;3.08;;;;;;;;;;5148254;27;20018;-73
2021/10/13 00:04:26;;;;;;;5.20;2.70;;;;;;;;;;5148448;27;20151;-72
2021/10/13 00:06:52;;;;;;;4.30;2.65;;;;;;;;;;5148592;27;20102;-72
2021/10/13 00:09:19;;;;;;;5.38;3.28;;;;;;;;;;5146456;27;20106;-72
2021/10/13 00:11:45;;;;;;;3.53;2.30;;;;;;;;;;5148292;27;20463;-72
2021/10/13 00:14:11;;;;;;;4.35;3.17;;;;;;;;;;5148374;27;20149;-72
2021/10/13 00:16:38;;;;;;;3.50;2.50;;;;;;;;;;5148233;27;20023;-73
2021/10/13 00:19:05;;;;;;;3.05;2.40;;;;;;;;;;5146697;27;20023;-72
2021/10/13 00:21:31;;;;;;;4.97;2.90;;;;;;;;;;5148165;27;20075;-72
2021/10/13 00:23:57;;;;;;;4.78;2.38;;;;;;;;;;5148580;27;20154;-72
2021/10/13 00:26:23;;;;;;;5.00;2.90;;;;;;;;;;5148166;27;20482;-72
2021/10/13 00:28:49;;;;;;;5.80;2.90;;;;;;;;;;5147669;27;20094;-72
2021/10/13 00:31:15;;;;;;;7.50;3.40;;;;;;;;;;5146313;27;20177;-73
2021/10/13 00:33:42;;;;;;;7.63;3.55;;;;;;;;;;5148207;27;20443;-73
2021/10/13 00:36:08;;;;;;;4.50;3.10;;;;;;;;;;5148244;27;20106;-72
2021/10/13 00:38:34;;;;;;;4.38;2.90;;;;;;;;;;5148329;27;20019;-73
2021/10/13 00:41:00;;;;;;;5.40;3.00;;;;;;;;;;5147709;27;20200;-72
2021/10/13 00:43:26;;;;;;;6.00;3.00;;;;;;;;;;5147797;27;20019;-73
2021/10/13 00:45:55;;;;;;;7.43;3.20;;;;;;;;;;5146419;27;20034;-73
2021/10/13 00:48:21;;;;;;;9.57;2.75;;;;;;;;;;5148115;27;20165;-72
2021/10/13 00:50:47;;;;;;;3.95;3.35;;;;;;;;;;5147850;27;20053;-73
2021/10/13 00:53:13;;;;;;;5.18;2.75;;;;;;;;;;5147767;27;20053;-73
2021/10/13 00:55:39;;;;;;;4.05;3.10;;;;;;;;;;5147983;27;20023;-72
2021/10/13 00:58:05;;;;;;;3.92;2.90;;;;;;;;;;5147890;27;20049;-72
2021/10/13 01:00:32;;;;;;;5.80;2.90;;;;;;;;;;5151872;27;20109;-72
2021/10/13 01:03:21;;;;;;;5.25;2.80;;;;;;;;;;5151753;27;20022;-72
2021/10/13 01:05:57;;;;;;;8.15;3.25;;;;;;;;;;5141205;27;20035;-72
2021/10/13 01:08:26;;;;;;;6.50;3.08;;;;;;;;;;5151659;27;20022;-73
2021/10/13 01:11:01;;;;;;;5.97;3.40;;;;;;;;;;5150071;27;20034;-72
2021/10/13 01:13:48;;;;;;;6.72;3.15;;;;;;;;;;5151431;27;20071;-72
2021/10/13 01:16:18;;;;;;;4.03;2.90;;;;;;;;;;5151553;27;20391;-72
2021/10/13 01:18:48;;;;;;;5.20;2.67;;;;;;;;;;5151543;27;20525;-72
2021/10/13 01:21:17;;;;;;;4.32;2.60;;;;;;;;;;5149927;27;20023;-72
2021/10/13 01:23:56;;;;;;;4.68;2.53;;;;;;;;;;5151332;27;20023;-72
2021/10/13 01:26:27;;;;;;;5.43;2.90;;;;;;;;;;5151457;27;20121;-72
2021/10/13 01:28:55;;;;;;;5.30;2.65;;;;;;;;;;5149474;27;20042;-72
2021/10/13 01:31:24;;;;;;;9.00;3.05;;;;;;;;;;5151517;27;20606;-72
2021/10/13 01:33:59;;;;;;;3.30;1.90;;;;;;;;;;5151507;27;20467;-72
2021/10/13 01:36:28;;;;;;;6.05;2.85;;;;;;;;;;5150883;27;20023;-72
2021/10/13 01:38:56;;;;;;;3.28;2.40;;;;;;;;;;5149475;27;20022;-72
2021/10/13 01:41:23;;;;;;;5.22;2.30;;;;;;;;;;5151068;27;20030;-73
2021/10/13 01:43:51;;;;;;;5.55;2.75;;;;;;;;;;5145551;27;20471;-72
2021/10/13 01:46:20;;;;;;;4.53;2.65;;;;;;;;;;5130186;27;20275;-72
2021/10/13 01:48:46;;;;;;;3.78;2.58;;;;;;;;;;5128682;27;20027;-72
2021/10/13 01:51:14;;;;;;;8.13;2.80;;;;;;;;;;5130203;27;20142;-72
2021/10/13 01:53:40;;;;;;;4.18;2.70;;;;;;;;;;5130457;27;20031;-72
2021/10/13 01:56:07;;;;;;;3.60;2.75;;;;;;;;;;5129943;27;20030;-73
2021/10/13 01:58:34;;;;;;;6.32;2.92;;;;;;;;;;5128203;27;20046;-72
2021/10/13 02:01:02;;;;;;;4.57;2.78;;;;;;;;;;5129915;27;20020;-72
2021/10/13 02:03:31;;;;;;;5.22;2.78;;;;;;;;;;5130359;27;20110;-73
2021/10/13 02:06:01;;;;;;;4.90;2.85;;;;;;;;;;5130115;27;20023;-72
2021/10/13 02:08:27;;;;;;;4.53;3.28;;;;;;;;;;5129230;27;20479;-72
2021/10/13 02:10:54;;;;;;;6.32;3.25;;;;;;;;;;5127409;27;20038;-72
2021/10/13 02:13:21;;;;;;;5.90;3.22;;;;;;;;;;5129769;27;20019;-72
2021/10/13 02:15:48;;;;;;;5.78;3.13;;;;;;;;;;5129401;27;20042;-72
2021/10/13 02:18:17;;;;;;;3.88;3.22;;;;;;;;;;5129359;27;20026;-72
2021/10/13 02:20:43;;;;;;;6.45;3.30;;;;;;;;;;5128102;27;20406;-72
2021/10/13 02:23:10;;;;;;;6.20;3.05;;;;;;;;;;5127685;27;20039;-72
2021/10/13 02:25:37;;;;;;;6.72;3.40;;;;;;;;;;5129552;27;20027;-72
2021/10/13 02:28:09;;;;;;;5.43;3.00;;;;;;;;;;5129442;27;20036;-72
2021/10/13 02:30:36;;;;;;;6.43;3.10;;;;;;;;;;5127510;27;20041;-72
2021/10/13 02:33:02;;;;;;;4.15;3.20;;;;;;;;;;5129144;27;20526;-72
2021/10/13 02:35:28;;;;;;;6.03;3.13;;;;;;;;;;5129340;27;20031;-72
2021/10/13 02:37:54;;;;;;;6.40;3.83;;;;;;;;;;5129186;27;20106;-72
2021/10/13 02:40:20;;;;;;;6.82;3.50;;;;;;;;;;5129204;27;20468;-73
2021/10/13 02:42:47;;;;;;;6.25;3.10;;;;;;;;;;5127900;27;20398;-72
2021/10/13 02:45:13;;;;;;;7.25;3.83;;;;;;;;;;5129143;27;20037;-72
2021/10/13 02:47:46;;;;;;;3.63;3.15;;;;;;;;;;5129134;27;20034;-72
2021/10/13 02:50:15;;;;;;;5.63;3.67;;;;;;;;;;5128723;27;20084;-72
2021/10/13 02:52:51;;;;;;;16.33;3.45;;;;;;;;;;5127827;27;20024;-72
2021/10/13 02:55:26;;;;;;;4.65;3.05;;;;;;;;;;5128945;27;20033;-72
2021/10/13 02:58:04;;;;;;;5.88;3.15;;;;;;;;;;5128812;27;20047;-72
2021/10/13 03:00:32;;;;;;;6.38;3.65;;;;;;;;;;5128910;27;20031;-72
2021/10/13 03:03:00;;;;;;;3.95;3.00;;;;;;;;;;5125854;27;20064;-72
2021/10/13 03:05:27;;;;;;;3.83;2.97;;;;;;;;;;5126873;27;20031;-72
2021/10/13 03:07:56;;;;;;;5.30;3.30;;;;;;;;;;5126573;27;20291;-72
2021/10/13 03:10:22;;;;;;;5.90;3.50;;;;;;;;;;5124871;27;20398;-73
2021/10/13 03:12:50;;;;;;;4.63;3.42;;;;;;;;;;5126236;27;20022;-72
2021/10/13 03:15:17;;;;;;;5.32;3.15;;;;;;;;;;5126060;27;20426;-72
2021/10/13 03:17:46;;;;;;;5.22;3.33;;;;;;;;;;5126548;27;20106;-72
2021/10/13 03:20:13;;;;;;;5.10;3.35;;;;;;;;;;5125835;27;20055;-72
2021/10/13 03:22:40;;;;;;;5.88;2.90;;;;;;;;;;5125743;27;20091;-72
2021/10/13 03:25:06;;;;;;;5.45;3.08;;;;;;;;;;5124654;27;20046;-73
2021/10/13 03:27:32;;;;;;;5.38;3.78;;;;;;;;;;5125674;27;20091;-72
2021/10/13 03:29:58;;;;;;;4.63;3.38;;;;;;;;;;5125634;27;20383;-72
2021/10/13 03:32:25;;;;;;;8.88;3.35;;;;;;;;;;5126009;27;20027;-72
2021/10/13 03:34:51;;;;;;;5.50;3.45;;;;;;;;;;5125393;27;20023;-72
2021/10/13 03:37:18;;;;;;;4.15;2.90;;;;;;;;;;5124037;27;20072;-72
2021/10/13 03:39:48;;;;;;;7.50;3.20;;;;;;;;;;5125507;27;20030;-72
2021/10/13 03:42:15;;;;;;;4.82;3.20;;;;;;;;;;5125722;27;20435;-72
2021/10/13 03:44:41;;;;;;;8.35;3.20;;;;;;;;;;5125840;27;20051;-72
2021/10/13 03:47:07;;;;;;;4.03;2.53;;;;;;;;;;5123975;27;20448;-73
2021/10/13 03:49:35;;;;;;;5.97;3.03;;;;;;;;;;5125456;27;20049;-73
2021/10/13 03:52:01;;;;;;;5.45;2.75;;;;;;;;;;5125677;27;20031;-72
2021/10/13 03:54:27;;;;;;;7.95;3.20;;;;;;;;;;5123667;27;20026;-72
2021/10/13 03:56:53;;;;;;;4.65;2.88;;;;;;;;;;5125539;27;20532;-72
2021/10/13 03:59:20;;;;;;;7.05;3.83;;;;;;;;;;5125592;27;20043;-72
2021/10/13 04:01:47;;;;;;;7.97;3.80;;;;;;;;;;5125418;27;20055;-72
2021/10/13 04:04:13;;;;;;;5.88;3.17;;;;;;;;;;5125166;27;20034;-72
2021/10/13 04:06:39;;;;;;;4.38;3.17;;;;;;;;;;5123843;27;20023;-72
2021/10/13 04:09:06;;;;;;;7.22;3.65;;;;;;;;;;5124918;27;20431;-72
2021/10/13 04:11:32;;;;;;;4.55;3.17;;;;;;;;;;5125048;28;20031;-72
2021/10/13 04:13:58;;;;;;;5.38;3.10;;;;;;;;;;5124885;28;20047;-72
2021/10/13 04:16:24;;;;;;;6.38;3.10;;;;;;;;;;5123479;28;20023;-72
2021/10/13 04:18:51;;;;;;;7.15;3.50;;;;;;;;;;5124833;28;20016;-72
2021/10/13 04:21:17;;;;;;;5.38;3.03;;;;;;;;;;5125108;28;20041;-72
2021/10/13 04:23:43;;;;;;;8.15;3.53;;;;;;;;;;5125373;28;20502;-72
2021/10/13 04:26:09;;;;;;;7.70;3.70;;;;;;;;;;5124804;28;20720;-72
2021/10/13 04:28:35;;;;;;;6.80;3.15;;;;;;;;;;5123136;28;20023;-72
2021/10/13 04:31:01;;;;;;;3.53;2.95;;;;;;;;;;5124419;28;20332;-72
2021/10/13 04:33:28;;;;;;;4.80;3.17;;;;;;;;;;5127298;27;20011;-72
2021/10/13 04:35:54;;;;;;;7.25;4.07;;;;;;;;;;5129089;27;20031;-72
2021/10/13 04:38:20;;;;;;;10.02;7.70;;;;;;;;;;5128759;27;20470;-72
2021/10/13 04:40:46;;;;;;;9.13;5.72;;;;;;;;;;5127213;27;20031;-72
2021/10/13 04:43:12;;;;;;;13.80;5.75;;;;;;;;;;5129093;27;20023;-72
2021/10/13 04:45:38;;;;;;;7.00;4.78;;;;;;;;;;5129097;27;20023;-72
2021/10/13 04:48:04;;;;;;;7.50;4.88;;;;;;;;;;5128827;27;20034;-72
2021/10/13 04:50:31;;;;;;;6.35;4.88;;;;;;;;;;5127115;27;20114;-72
2021/10/13 04:52:57;;;;;;;5.35;4.72;;;;;;;;;;5128710;27;20016;-72
2021/10/13 04:55:23;;;;;;;5.82;4.00;;;;;;;;;;5128729;27;20027;-73
2021/10/13 04:57:49;;;;;;;7.07;4.28;;;;;;;;;;5128322;27;20055;-72
2021/10/13 05:00:15;;;;;;;8.52;4.57;;;;;;;;;;5126666;27;20033;-72
2021/10/13 05:02:42;;;;;;;7.25;4.32;;;;;;;;;;5128655;27;20030;-72
2021/10/13 05:05:08;;;;;;;11.15;4.75;;;;;;;;;;5128648;27;20396;-72
2021/10/13 05:07:34;;;;;;;5.63;3.67;;;;;;;;;;5128644;27;20499;-73
2021/10/13 05:10:00;;;;;;;8.30;4.22;;;;;;;;;;5126932;27;20440;-72
2021/10/13 05:12:26;;;;;;;7.20;4.63;;;;;;;;;;5128071;27;20016;-72
2021/10/13 05:14:53;;;;;;;6.03;4.00;;;;;;;;;;5128162;27;20034;-72
2021/10/13 05:17:19;;;;;;;8.75;4.28;;;;;;;;;;5128590;27;20031;-72
2021/10/13 05:19:45;;;;;;;8.10;4.70;;;;;;;;;;5127178;27;20122;-72
2021/10/13 05:22:11;;;;;;;9.65;4.47;;;;;;;;;;5128187;27;20023;-72
2021/10/13 05:24:37;;;;;;;8.70;5.68;;;;;;;;;;5128727;27;20023;-72
2021/10/13 05:27:03;;;;;;;9.23;5.88;;;;;;;;;;5128530;27;20413;-72
2021/10/13 05:29:29;;;;;;;9.00;5.72;;;;;;;;;;5127705;27;20028;-72
2021/10/13 05:31:56;;;;;;;11.10;5.60;;;;;;;;;;5126655;27;20027;-72
2021/10/13 05:34:22;;;;;;;7.85;5.30;;;;;;;;;;5127682;27;20035;-72
2021/10/13 05:36:48;;;;;;;9.23;5.55;;;;;;;;;;5128358;27;20510;-72
2021/10/13 05:39:14;;;;;;;6.93;4.95;;;;;;;;;;5127831;27;20027;-72
2021/10/13 05:41:40;;;;;;;11.35;5.00;;;;;;;;;;5127728;27;20428;-72
2021/10/13 05:44:06;;;;;;;10.27;5.50;;;;;;;;;;5125122;27;20066;-72
2021/10/13 05:46:33;;;;;;;8.80;5.35;;;;;;;;;;5127492;27;20083;-72
2021/10/13 05:48:59;;;;;;;8.60;5.70;;;;;;;;;;5127691;27;20019;-72
2021/10/13 05:51:25;;;;;;;10.90;5.35;;;;;;;;;;5127353;27;20027;-72
2021/10/13 05:53:52;;;;;;;7.90;5.25;;;;;;;;;;5127658;27;20015;-73
2021/10/13 05:56:18;;;;;;;9.55;4.50;;;;;;;;;;5126953;27;20030;-72
2021/10/13 05:58:44;;;;;;;8.90;5.07;;;;;;;;;;5125988;27;20043;-72
2021/10/13 06:01:10;;;;;;;11.55;4.82;;;;;;;;;;5127780;27;20019;-72
2021/10/13 06:03:36;;;;;;;7.38;4.43;;;;;;;;;;5127237;27;20023;-72
2021/10/13 06:06:02;;;;;;;7.95;4.82;;;;;;;;;;5127473;27;20027;-72
2021/10/13 06:08:29;;;;;;;11.23;4.47;;;;;;;;;;5127031;27;20065;-72
2021/10/13 06:10:55;;;;;;;9.52;4.72;;;;;;;;;;5126930;27;20035;-72
2021/10/13 06:13:21;;;;;;;7.43;4.22;;;;;;;;;;5126055;27;20020;-72
2021/10/13 06:15:50;;;;;;;8.80;4.70;;;;;;;;;;5127120;27;20023;-72
2021/10/13 06:18:16;;;;;;;7.20;4.00;;;;;;;;;;5127145;27;20520;-72
2021/10/13 06:20:42;;;;;;;6.50;4.38;;;;;;;;;;5127155;27;20035;-72
2021/10/13 06:23:08;;;;;;;7.65;4.35;;;;;;;;;;5146645;27;20213;-72
2021/10/13 06:25:35;;;;;;;6.85;4.30;;;;;;;;;;5146093;27;20027;-73
2021/10/13 06:28:01;;;;;;;10.85;3.90;;;;;;;;;;5147893;27;20096;-72
2021/10/13 06:30:32;;;;;;;6.50;3.55;;;;;;;;;;5147470;27;20037;-72
2021/10/13 06:32:58;;;;;;;6.40;3.67;;;;;;;;;;5147550;27;20065;-72
2021/10/13 06:35:24;;;;;;;6.30;3.78;;;;;;;;;;5144921;27;20250;-72
2021/10/13 06:37:51;;;;;;;10.95;4.05;;;;;;;;;;5147073;27;20034;-73
2021/10/13 06:40:17;;;;;;;10.60;3.67;;;;;;;;;;5146529;27;20018;-72
2021/10/13 06:42:43;;;;;;;12.70;3.67;;;;;;;;;;5146319;27;20019;-72
2021/10/13 06:45:10;;;;;;;13.32;3.67;;;;;;;;;;5143599;27;20031;-72
2021/10/13 06:47:36;;;;;;;9.15;3.80;;;;;;;;;;5146626;27;20022;-72
2021/10/13 06:50:03;;;;;;;8.05;3.30;;;;;;;;;;5146393;27;20632;-72
2021/10/13 06:52:29;;;;;;;7.32;3.13;;;;;;;;;;5146681;27;20025;-73
2021/10/13 06:54:55;;;;;;;5.53;3.03;;;;;;;;;;5146687;27;20019;-72
2021/10/13 06:57:22;;;;;;;7.75;3.38;;;;;;;;;;5145289;27;20095;-73
2021/10/13 06:59:48;;;;;;;5.75;3.05;;;;;;;;;;5146785;27;20034;-72
2021/10/13 07:02:14;;;;;;;5.63;2.80;;;;;;;;;;5147287;27;20656;-72
2021/10/13 07:04:41;;;;;;;8.25;3.10;;;;;;;;;;5145064;27;20470;-72
2021/10/13 07:07:07;;;;;;;5.57;2.88;;;;;;;;;;5147059;27;20598;-73
2021/10/13 07:09:33;;;;;;;6.13;3.33;;;;;;;;;;5146423;27;20041;-73
2021/10/13 07:12:00;;;;;;;6.07;2.90;;;;;;;;;;5146229;27;20015;-72
2021/10/13 07:14:26;;;;;;;7.68;2.83;;;;;;;;;;5142482;27;20023;-72
2021/10/13 07:16:52;;;;;;;7.57;3.30;;;;;;;;;;5136876;27;20024;-72
2021/10/13 07:19:18;;;;;;;8.40;3.50;;;;;;;;;;5129523;27;20481;-72
2021/10/13 07:21:44;;;;;;;12.10;3.33;;;;;;;;;;5145334;27;20497;-72
2021/10/13 07:24:10;;;;;;;8.10;3.10;;;;;;;;;;5145822;27;20047;-72
2021/10/13 07:26:36;;;;;;;6.97;2.97;;;;;;;;;;5143988;27;20033;-72
2021/10/13 07:29:03;;;;;;;6.82;3.15;;;;;;;;;;5140862;27;20023;-73
2021/10/13 07:31:30;;;;;;;7.15;3.40;;;;;;;;;;5145690;27;20017;-72
2021/10/13 07:33:56;;;;;;;8.15;3.55;;;;;;;;;;5145602;27;20015;-72
2021/10/13 07:36:23;;;;;;;7.68;3.22;;;;;;;;;;5145600;27;20086;-72
2021/10/13 07:38:49;;;;;;;5.47;3.40;;;;;;;;;;5136110;27;20040;-72
2021/10/13 07:41:15;;;;;;;7.57;3.38;;;;;;;;;;5124815;27;20467;-72
2021/10/13 07:43:42;;;;;;;9.13;3.10;;;;;;;;;;5124539;27;20031;-72
2021/10/13 07:46:08;;;;;;;11.68;3.53;;;;;;;;;;5125698;27;20100;-72
2021/10/13 07:48:34;;;;;;;7.57;3.05;;;;;;;;;;5137504;27;20099;-72
2021/10/13 07:51:01;;;;;;;7.95;3.78;;;;;;;;;;5145272;27;20034;-72
2021/10/13 07:53:27;;;;;;;8.38;3.47;;;;;;;;;;5144271;27;20018;-73
2021/10/13 07:55:54;;;;;;;10.07;3.83;;;;;;;;;;5145306;27;20108;-72
2021/10/13 07:58:20;;;;;;;7.75;3.30;;;;;;;;;;5145301;27;20046;-73
2021/10/13 08:00:46;;;;;;;6.82;3.50;;;;;;;;;;5144956;27;20449;-72
2021/10/13 08:03:12;;;;;;;7.63;3.42;;;;;;;;;;5146541;27;20019;-73
2021/10/13 08:05:39;;;;;;;9.00;3.83;;;;;;;;;;5145380;27;20027;-72
2021/10/13 08:08:05;;;;;;;6.00;3.60;;;;;;;;;;5143544;27;20394;-72
2021/10/13 08:10:32;;;;;;;7.72;3.72;;;;;;;;;;5145694;27;20035;-72
2021/10/13 08:12:59;;;;;;;8.82;3.17;;;;;;;;;;5145082;27;20047;-73
2021/10/13 08:15:26;;;;;;;11.52;4.40;;;;;;;;;;5144944;27;20027;-73
2021/10/13 08:17:52;;;;;;;8.15;3.63;;;;;;;;;;5145456;27;20018;-72
2021/10/13 08:20:18;;;;;;;8.05;3.60;;;;;;;;;;5143511;27;20023;-72
2021/10/13 08:22:46;;;;;;;12.07;3.60;;;;;;;;;;5144816;27;20023;-72
2021/10/13 08:25:12;;;;;;;6.78;3.25;;;;;;;;;;5145102;27;20015;-72
2021/10/13 08:27:39;;;;;;;9.32;3.30;;;;;;;;;;5143306;27;20110;-72
2021/10/13 08:30:05;;;;;;;7.15;3.28;;;;;;;;;;5144874;27;20092;-72
2021/10/13 08:32:32;;;;;;;7.68;3.13;;;;;;;;;;5144884;27;20474;-72
2021/10/13 08:34:58;;;;;;;8.75;3.80;;;;;;;;;;5144629;27;20034;-72
2021/10/13 08:37:24;;;;;;;8.63;3.50;;;;;;;;;;5145277;27;20022;-72
2021/10/13 08:39:50;;;;;;;9.98;3.85;;;;;;;;;;5143766;27;20019;-72
2021/10/13 08:42:23;;;;;;;12.05;3.55;;;;;;;;;;5144044;27;20209;-72
2021/10/13 08:44:49;;;;;;;7.75;3.80;;;;;;;;;;5144732;27;20079;-72
2021/10/13 08:47:15;;;;;;;6.15;3.75;;;;;;;;;;5144941;27;20214;-72
2021/10/13 08:49:41;;;;;;;7.38;3.35;;;;;;;;;;5143598;27;20053;-73
2021/10/13 08:52:09;;;;;;;9.60;3.45;;;;;;;;;;5144497;27;20027;-73
2021/10/13 08:54:35;;;;;;;8.10;3.42;;;;;;;;;;5140277;27;20411;-73
2021/10/13 08:57:01;;;;;;;6.00;3.00;;;;;;;;;;5123948;27;20424;-73
2021/10/13 08:59:41;;;;;;;11.50;3.47;;;;;;;;;;5123370;27;20079;-73
2021/10/13 09:02:08;;;;;;;8.73;3.05;;;;;;;;;;5124586;27;20546;-72
2021/10/13 09:04:35;;;;;;;6.18;3.35;;;;;;;;;;5129298;27;20030;-73
2021/10/13 09:07:02;;;;;;;5.78;3.10;;;;;;;;;;5145233;27;20542;-72
2021/10/13 09:09:28;;;;;;;8.68;3.25;;;;;;;;;;5143844;27;20066;-72
2021/10/13 09:11:54;;;;;;;6.50;3.85;;;;;;;;;;5145312;27;20116;-73
2021/10/13 09:14:28;;;;;;;8.27;3.38;;;;;;;;;;5144045;27;20034;-72
2021/10/13 09:17:05;;;;;;;7.65;3.30;;;;;;;;;;5145207;27;20023;-72
2021/10/13 09:19:34;;;;;;;7.05;3.08;;;;;;;;;;5146203;27;20030;-72
2021/10/13 09:22:01;;;;;;;5.95;2.97;;;;;;;;;;5147085;27;20459;-72
2021/10/13 09:24:29;;;;;;;8.02;3.33;;;;;;;;;;5148876;27;20026;-72
2021/10/13 09:26:56;;;;;;;6.30;2.72;;;;;;;;;;5148396;27;20100;-72
2021/10/13 09:29:23;;;;;;;4.80;2.78;;;;;;;;;;5140618;27;20058;-72
2021/10/13 09:32:00;;;;;;;7.25;3.25;;;;;;;;;;5144322;27;20103;-72
2021/10/13 09:34:26;;;;;;;9.48;3.28;;;;;;;;;;5146496;27;20031;-72
2021/10/13 09:37:01;;;;;;;4.65;3.03;;;;;;;;;;5146810;27;20058;-72
2021/10/13 09:39:28;;;;;;;9.77;3.88;;;;;;;;;;5147940;27;20021;-72
2021/10/13 09:41:57;;;;;;;5.18;3.53;;;;;;;;;;5146241;27;20359;-72
2021/10/13 09:44:23;;;;;;;6.38;3.08;;;;;;;;;;5147935;27;20034;-72
2021/10/13 09:46:49;;;;;;;4.93;3.05;;;;;;;;;;5147581;27;20023;-73
2021/10/13 09:49:25;;;;;;;9.50;3.25;;;;;;;;;;5147460;27;20053;-72
2021/10/13 09:51:52;;;;;;;10.40;3.47;;;;;;;;;;5146836;27;20023;-73
2021/10/13 09:54:18;;;;;;;4.65;3.08;;;;;;;;;;5145906;27;20019;-73
2021/10/13 09:56:44;;;;;;;5.90;3.00;;;;;;;;;;5147408;27;20030;-73
2021/10/13 09:59:17;;;;;;;11.82;3.58;;;;;;;;;;5148222;27;20411;-72
2021/10/13 10:01:45;;;;;;;9.93;3.63;;;;;;;;;;5148258;27;20026;-73
2021/10/13 10:04:13;;;;;;;9.88;3.60;;;;;;;;;;5147677;27;20023;-74
2021/10/13 10:06:41;;;;;;;7.72;3.78;;;;;;;;;;5147301;27;20057;-72
2021/10/13 10:09:07;;;;;;;7.50;3.50;;;;;;;;;;5146134;27;20023;-72
2021/10/13 10:11:39;;;;;;;7.78;3.42;;;;;;;;;;5148112;27;20627;-73
2021/10/13 10:14:25;;;;;;;11.93;3.72;;;;;;;;;;5148418;27;20481;-72
2021/10/13 10:16:51;;;;;;;10.43;3.67;;;;;;;;;;5148114;27;20038;-72
2021/10/13 10:19:21;;;;;;;7.03;3.92;;;;;;;;;;5146311;27;20423;-73
2021/10/13 10:21:55;;;;;;;8.88;3.78;;;;;;;;;;5147963;27;20027;-72
2021/10/13 10:24:24;;;;;;;7.93;3.50;;;;;;;;;;5148013;27;20146;-72
2021/10/13 10:26:50;;;;;;;7.53;3.30;;;;;;;;;;5147865;27;20023;-73
2021/10/13 10:29:16;;;;;;;4.78;3.05;;;;;;;;;;5146433;27;20026;-73
2021/10/13 10:31:56;;;;;;;7.82;3.65;;;;;;;;;;5147027;27;20031;-73
2021/10/13 10:34:23;;;;;;;6.35;3.53;;;;;;;;;;5147548;27;20083;-73
2021/10/13 10:36:50;;;;;;;7.30;3.03;;;;;;;;;;5146369;27;20027;-73
2021/10/13 10:39:17;;;;;;;9.43;3.38;;;;;;;;;;5147585;27;20027;-72
2021/10/13 10:41:43;;;;;;;6.78;3.30;;;;;;;;;;5147067;27;20047;-72
2021/10/13 10:44:31;;;;;;;5.40;3.00;;;;;;;;;;5146987;27;20027;-72
2021/10/13 10:47:04;;;;;;;6.35;3.75;;;;;;;;;;5145504;27;20045;-72
2021/10/13 10:49:45;;;;;;;7.22;3.63;;;;;;;;;;5147021;27;20030;-72
2021/10/13 10:52:15;;;;;;;9.90;4.15;;;;;;;;;;5147399;27;20022;-72
2021/10/13 10:55:02;;;;;;;11.68;3.88;;;;;;;;;;5147167;27;20027;-73
2021/10/13 10:57:31;;;;;;;7.35;3.88;;;;;;;;;;5135918;27;20043;-72
2021/10/13 10:59:57;;;;;;;8.20;4.80;;;;;;;;;;5145271;27;20080;-72
2021/10/13 11:02:24;;;;;;;10.68;4.60;;;;;;;;;;5146368;27;20638;-73
2021/10/13 11:05:04;;;;;;;5.20;2.97;;;;;;;;;;5146332;27;20026;-72
2021/10/13 11:07:31;;;;;;;4.45;2.70;;;;;;;;;;5147393;27;20459;-73
2021/10/13 11:10:00;;;;;;;5.78;3.03;;;;;;;;;;5143502;27;20502;-72
2021/10/13 11:12:26;;;;;;;5.15;3.10;;;;;;;;;;5146760;27;20019;-72
2021/10/13 11:15:22;;;;;;;5.93;3.60;;;;;;;;;;5146403;27;20034;-72
2021/10/13 11:17:48;;;;;;;7.97;3.40;;;;;;;;;;5133352;27;20027;-72
2021/10/13 11:20:15;;;;;;;7.55;3.60;;;;;;;;;;5146676;27;20299;-72
2021/10/13 11:22:42;;;;;;;8.05;3.70;;;;;;;;;;5144573;27;20019;-72
2021/10/13 11:25:15;;;;;;;7.10;3.28;;;;;;;;;;5146682;27;20029;-72
2021/10/13 11:27:42;;;;;;;10.25;3.75;;;;;;;;;;5146481;27;20393;-72
2021/10/13 11:30:34;;;;;;;5.80;3.55;;;;;;;;;;5144083;27;20031;-72
2021/10/13 11:33:03;;;;;;;6.65;3.17;;;;;;;;;;5140792;27;20031;-72
2021/10/13 11:35:29;;;;;;;10.85;4.05;;;;;;;;;;5146141;27;20478;-72
2021/10/13 11:37:55;;;;;;;5.95;3.17;;;;;;;;;;5147087;27;20033;-72
2021/10/13 11:40:22;;;;;;;6.22;3.53;;;;;;;;;;5146011;27;20537;-72
2021/10/13 11:42:49;;;;;;;8.02;3.55;;;;;;;;;;5145297;27;20169;-72
2021/10/13 11:45:18;;;;;;;6.93;3.45;;;;;;;;;;5144418;27;20026;-72
2021/10/13 11:47:44;;;;;;;6.78;3.28;;;;;;;;;;5146185;27;20151;-72
2021/10/13 11:50:11;;;;;;;6.03;3.40;;;;;;;;;;5146189;27;20470;-72
2021/10/13 11:52:40;;;;;;;8.15;3.72;;;;;;;;;;5146207;27;20505;-73
2021/10/13 11:55:10;;;;;;;8.70;3.28;;;;;;;;;;5146362;27;20052;-73
2021/10/13 11:57:38;;;;;;;7.32;3.60;;;;;;;;;;5145941;27;20038;-72
2021/10/13 12:00:08;;;;;;;8.27;3.60;;;;;;;;;;5144957;27;20054;-72
2021/10/13 12:02:34;;;;;;;7.82;4.03;;;;;;;;;;5146626;27;20381;-72
2021/10/13 12:05:04;;;;;;;6.30;3.97;;;;;;;;;;5145724;27;20018;-72
2021/10/13 12:07:30;;;;;;;10.35;3.65;;;;;;;;;;5145795;27;20065;-72
2021/10/13 12:09:57;;;;;;;8.27;3.28;;;;;;;;;;5145930;27;20091;-73
2021/10/13 12:12:24;;;;;;;9.85;3.97;;;;;;;;;;5145628;27;20101;-72
2021/10/13 12:14:50;;;;;;;9.60;3.58;;;;;;;;;;5144537;27;20027;-72
2021/10/13 12:17:42;;;;;;;11.05;3.90;;;;;;;;;;5145720;27;20434;-72
2021/10/13 12:20:16;;;;;;;7.68;3.70;;;;;;;;;;5142483;27;20030;-72
2021/10/13 12:22:47;;;;;;;9.73;3.60;;;;;;;;;;5145773;27;20079;-72
2021/10/13 12:25:31;;;;;;;8.32;3.70;;;;;;;;;;5145481;27;20025;-72
2021/10/13 12:27:59;;;;;;;8.45;3.97;;;;;;;;;;5144315;27;20026;-72
2021/10/13 12:30:29;;;;;;;10.25;3.50;;;;;;;;;;5145152;27;20389;-72
2021/10/13 12:33:04;;;;;;;6.47;3.42;;;;;;;;;;5146018;27;20266;-72
2021/10/13 12:35:31;;;;;;;9.02;3.97;;;;;;;;;;5146123;27;20366;-72
2021/10/13 12:37:57;;;;;;;8.50;3.97;;;;;;;;;;5144341;27;20062;-72
2021/10/13 12:40:23;;;;;;;8.43;4.05;;;;;;;;;;5145721;27;20054;-72
2021/10/13 12:42:49;;;;;;;15.75;5.05;;;;;;;;;;5145664;27;20026;-72
2021/10/13 12:45:22;;;;;;;9.23;4.70;;;;;;;;;;5145685;27;20027;-72
2021/10/13 12:47:48;;;;;;;11.63;5.30;;;;;;;;;;5143861;27;20035;-72
2021/10/13 12:50:17;;;;;;;13.93;5.05;;;;;;;;;;5145391;27;20060;-72
2021/10/13 12:52:43;;;;;;;11.23;5.18;;;;;;;;;;5145668;27;20362;-72
2021/10/13 12:55:09;;;;;;;15.35;4.78;;;;;;;;;;5148823;27;20434;-73
2021/10/13 12:57:35;;;;;;;15.07;4.32;;;;;;;;;;5149020;27;20038;-72
2021/10/13 13:00:02;;;;;;;14.32;4.13;;;;;;;;;;5148270;27;20035;-72
2021/10/13 13:02:28;;;;;;;14.35;3.60;;;;;;;;;;5149285;27;20102;-72
2021/10/13 13:04:55;;;;;;;12.95;3.53;;;;;;;;;;5149350;27;20026;-73
2021/10/13 13:07:21;;;;;;;18.00;3.83;;;;;;;;;;5148018;27;20101;-73
2021/10/13 13:09:47;;;;;;;11.77;4.60;;;;;;;;;;5149210;27;20508;-72
2021/10/13 13:12:14;;;;;;;19.10;5.43;;;;;;;;;;5149363;27;20479;-72
2021/10/13 13:14:41;;;;;;;10.52;4.28;;;;;;;;;;5149339;27;20075;-73
2021/10/13 13:17:08;;;;;;;8.50;3.25;;;;;;;;;;5149481;27;20394;-72
2021/10/13 13:19:34;;;;;;;6.28;3.13;;;;;;;;;;5149096;27;20485;-72
2021/10/13 13:22:00;;;;;;;10.65;3.65;;;;;;;;;;5147550;27;20026;-72
2021/10/13 13:24:26;;;;;;;4.55;3.17;;;;;;;;;;5149687;27;20075;-72
2021/10/13 13:26:54;;;;;;;7.13;3.17;;;;;;;;;;5149574;27;20050;-72
2021/10/13 13:29:20;;;;;;;6.43;2.97;;;;;;;;;;5149035;27;20058;-72
2021/10/13 13:31:46;;;;;;;5.25;2.88;;;;;;;;;;5148573;27;20018;-72
2021/10/13 13:34:13;;;;;;;6.43;2.80;;;;;;;;;;5147580;27;20019;-72
2021/10/13 13:36:40;;;;;;;6.15;2.90;;;;;;;;;;5149160;27;20019;-72
2021/10/13 13:39:06;;;;;;;7.38;3.20;;;;;;;;;;5148614;27;20026;-72
2021/10/13 13:41:32;;;;;;;9.27;3.63;;;;;;;;;;5146524;27;20026;-72
2021/10/13 13:43:58;;;;;;;7.70;3.28;;;;;;;;;;5148710;27;20074;-72
2021/10/13 13:46:26;;;;;;;7.22;3.05;;;;;;;;;;5148170;27;20070;-72
2021/10/13 13:48:52;;;;;;;8.80;3.00;;;;;;;;;;5148804;27;20464;-72
2021/10/13 13:51:18;;;;;;;6.03;3.00;;;;;;;;;;5146629;27;20042;-72
2021/10/13 13:53:45;;;;;;;7.80;2.50;;;;;;;;;;5148683;27;20031;-72
2021/10/13 13:56:11;;;;;;;6.70;2.60;;;;;;;;;;5148531;27;20023;-72
2021/10/13 13:58:40;;;;;;;7.53;3.30;;;;;;;;;;5148156;27;20126;-72
2021/10/13 14:01:06;;;;;;;4.88;2.72;;;;;;;;;;5148402;27;20060;-72
2021/10/13 14:03:32;;;;;;;7.65;2.20;;;;;;;;;;5146733;27;20042;-72
2021/10/13 14:05:58;;;;;;;6.97;2.80;;;;;;;;;;5146872;27;20023;-72
2021/10/13 14:08:24;;;;;;;4.90;2.33;;;;;;;;;;5148293;27;20480;-72
2021/10/13 14:10:52;;;;;;;5.32;2.83;;;;;;;;;;5147408;27;20083;-72
2021/10/13 14:13:19;;;;;;;9.50;2.60;;;;;;;;;;5147834;27;20520;-72
2021/10/13 14:15:45;;;;;;;6.60;2.70;;;;;;;;;;5147815;27;20026;-72
2021/10/13 14:18:11;;;;;;;8.88;2.72;;;;;;;;;;5148124;27;20030;-72
2021/10/13 14:20:37;;;;;;;9.05;2.83;;;;;;;;;;5146404;27;20044;-72
2021/10/13 14:23:03;;;;;;;6.88;2.55;;;;;;;;;;5148114;27;20061;-72
2021/10/13 14:25:30;;;;;;;2.70;1.90;;;;;;;;;;5146523;27;20027;-72
2021/10/13 14:27:56;;;;;;;4.47;2.22;;;;;;;;;;5147698;27;20345;-71
2021/10/13 14:30:22;;;;;;;5.25;2.53;;;;;;;;;;5147626;27;20030;-72
2021/10/13 14:32:48;;;;;;;6.47;2.40;;;;;;;;;;5148265;27;20018;-72
2021/10/13 14:35:14;;;;;;;6.55;2.30;;;;;;;;;;5147594;27;20066;-72
2021/10/13 14:37:40;;;;;;;6.40;2.28;;;;;;;;;;5147363;27;20030;-72
2021/10/13 14:40:07;;;;;;;7.47;3.10;;;;;;;;;;5145274;27;20033;-72
2021/10/13 14:42:33;;;;;;;7.70;2.70;;;;;;;;;;5147897;27;20471;-72
2021/10/13 14:44:59;;;;;;;5.65;2.60;;;;;;;;;;5146958;27;20027;-72